createdAt,value
2018-02-23T00:00:01.228Z,-1.9
2018-02-23T00:00:05.723Z,-1.9
2018-02-23T00:00:09.732Z,-1.91
2018-02-23T00:00:13.976Z,-1.9
2018-02-23T00:00:18.232Z,-1.9
2018-02-23T00:00:22.465Z,-1.9
2018-02-23T00:00:26.604Z,-1.91
2018-02-23T00:00:30.732Z,-1.91
2018-02-23T00:00:34.770Z,-1.91
2018-02-23T00:00:38.788Z,-1.91
2018-02-23T00:00:43.022Z,-1.91
2018-02-23T00:00:47.165Z,-1.91
2018-02-23T00:00:51.530Z,-1.91
2018-02-23T00:00:55.321Z,-1.91
2018-02-23T00:00:59.664Z,-1.92
2018-02-23T00:01:04.217Z,-1.91
2018-02-23T00:01:08.228Z,-1.92
2018-02-23T00:01:12.354Z,-1.91
2018-02-23T00:01:16.589Z,-1.91
2018-02-23T00:01:20.626Z,-1.92
2018-02-23T00:01:24.866Z,-1.92
2018-02-23T00:01:28.790Z,-1.91
2018-02-23T00:01:32.825Z,-1.92
2018-02-23T00:01:36.768Z,-1.92
2018-02-23T00:01:40.895Z,-1.92
2018-02-23T00:01:44.917Z,-1.93
2018-02-23T00:01:49.047Z,-1.91
2018-02-23T00:01:53.072Z,-1.92
2018-02-23T00:01:57.204Z,-1.91
2018-02-23T00:02:01.342Z,-1.92
2018-02-23T00:02:05.587Z,-1.92
2018-02-23T00:02:09.630Z,-1.92
2018-02-23T00:02:14.022Z,-1.93
2018-02-23T00:02:18.138Z,-1.92
2018-02-23T00:02:22.157Z,-1.92
2018-02-23T00:02:26.298Z,-1.92
2018-02-23T00:02:30.425Z,-1.93
2018-02-23T00:02:34.454Z,-1.92
2018-02-23T00:02:38.490Z,-1.92
2018-02-23T00:02:42.725Z,-1.92
2018-02-23T00:02:46.958Z,-1.93
2018-02-23T00:02:50.995Z,-1.93
2018-02-23T00:02:55.018Z,-1.93
2018-02-23T00:02:59.140Z,-1.93
2018-02-23T00:03:03.322Z,-1.94
2018-02-23T00:03:07.560Z,-1.93
2018-02-23T00:03:11.580Z,-1.94
2018-02-23T00:03:15.522Z,-1.95
2018-02-23T00:03:19.553Z,-1.95
2018-02-23T00:03:23.800Z,-1.94
2018-02-23T00:03:28.149Z,-1.94
2018-02-23T00:03:32.295Z,-1.94
2018-02-23T00:03:36.418Z,-1.95
2018-02-23T00:03:40.735Z,-1.95
2018-02-23T00:03:44.866Z,-1.95
2018-02-23T00:03:49.006Z,-1.95
2018-02-23T00:03:53.266Z,-1.96
2018-02-23T00:03:57.182Z,-1.96
2018-02-23T00:04:01.320Z,-1.96
2018-02-23T00:04:05.460Z,-1.96
2018-02-23T00:04:09.681Z,-1.97
2018-02-23T00:04:13.824Z,-1.96
2018-02-23T00:04:18.081Z,-1.97
2018-02-23T00:04:22.414Z,-1.97
2018-02-23T00:04:26.211Z,-1.97
2018-02-23T00:04:30.224Z,-1.98
2018-02-23T00:04:34.349Z,-1.98
2018-02-23T00:04:38.386Z,-1.98
2018-02-23T00:04:42.615Z,-1.98
2018-02-23T00:04:46.845Z,-1.98
2018-02-23T00:04:50.868Z,-1.98
2018-02-23T00:04:54.872Z,-1.98
2018-02-23T00:04:58.883Z,-1.97
2018-02-23T00:05:03.019Z,-1.99
2018-02-23T00:05:07.160Z,-1.98
2018-02-23T00:05:11.196Z,-1.98
2018-02-23T00:05:15.223Z,-1.99
2018-02-23T00:05:19.146Z,-1.98
2018-02-23T00:05:23.398Z,-1.98
2018-02-23T00:05:27.547Z,-1.99
2018-02-23T00:05:31.778Z,-1.99
2018-02-23T00:05:36.030Z,-1.99
2018-02-23T00:05:40.363Z,-1.99
2018-02-23T00:05:44.605Z,-1.99
2018-02-23T00:05:48.843Z,-2
2018-02-23T00:05:52.859Z,-1.99
2018-02-23T00:05:56.777Z,-1.99
2018-02-23T00:06:01.133Z,-1.99
2018-02-23T00:06:05.147Z,-1.99
2018-02-23T00:06:09.064Z,-1.99
2018-02-23T00:06:13.105Z,-1.99
2018-02-23T00:06:17.240Z,-1.99
2018-02-23T00:06:21.595Z,-1.99
2018-02-23T00:06:25.718Z,-2
2018-02-23T00:06:29.761Z,-2
2018-02-23T00:06:33.901Z,-2
2018-02-23T00:06:37.918Z,-2
2018-02-23T00:06:42.142Z,-2
2018-02-23T00:06:46.377Z,-1.99
2018-02-23T00:06:50.392Z,-2
2018-02-23T00:06:54.643Z,-2
2018-02-23T00:06:58.555Z,-2
2018-02-23T00:07:02.703Z,-1.99
2018-02-23T00:07:06.822Z,-1.99
2018-02-23T00:07:10.957Z,-2
2018-02-23T00:07:14.994Z,-2
2018-02-23T00:07:19.024Z,-1.99
2018-02-23T00:07:22.844Z,-2
2018-02-23T00:07:26.853Z,-2
2018-02-23T00:07:30.893Z,-2
2018-02-23T00:07:34.921Z,-1.99
2018-02-23T00:07:39.151Z,-1.99
2018-02-23T00:07:42.974Z,-2
2018-02-23T00:07:46.913Z,-1.99
2018-02-23T00:07:50.938Z,-2
2018-02-23T00:07:55.296Z,-1.99
2018-02-23T00:07:59.322Z,-2
2018-02-23T00:08:03.433Z,-1.99
2018-02-23T00:08:07.559Z,-2
2018-02-23T00:08:11.591Z,-1.99
2018-02-23T00:08:15.610Z,-1.99
2018-02-23T00:08:19.854Z,-2
2018-02-23T00:08:23.995Z,-1.99
2018-02-23T00:08:28.028Z,-1.99
2018-02-23T00:08:31.939Z,-2
2018-02-23T00:08:35.954Z,-2
2018-02-23T00:08:39.882Z,-2
2018-02-23T00:08:43.801Z,-2
2018-02-23T00:08:47.948Z,-1.99
2018-02-23T00:08:51.958Z,-2
2018-02-23T00:08:56.305Z,-2.01
2018-02-23T00:09:00.541Z,-2
2018-02-23T00:09:04.654Z,-2
2018-02-23T00:09:08.805Z,-2
2018-02-23T00:09:13.039Z,-2
2018-02-23T00:09:17.285Z,-1.99
2018-02-23T00:09:21.509Z,-2
2018-02-23T00:09:25.639Z,-1.99
2018-02-23T00:09:29.769Z,-2
2018-02-23T00:09:33.690Z,-1.99
2018-02-23T00:09:37.714Z,-1.99
2018-02-23T00:09:41.943Z,-2
2018-02-23T00:09:45.953Z,-2
2018-02-23T00:09:49.972Z,-1.99
2018-02-23T00:09:53.906Z,-2
2018-02-23T00:09:57.831Z,-1.99
2018-02-23T00:10:01.641Z,-2
2018-02-23T00:10:05.886Z,-2
2018-02-23T00:10:09.922Z,-2
2018-02-23T00:10:13.946Z,-1.99
2018-02-23T00:10:17.998Z,-2
2018-02-23T00:10:22.067Z,-1.99
2018-02-23T00:10:26.204Z,-2
2018-02-23T00:10:30.116Z,-1.99
2018-02-23T00:10:34.120Z,-1.99
2018-02-23T00:10:38.249Z,-1.99
2018-02-23T00:10:42.361Z,-2
2018-02-23T00:10:46.486Z,-2
2018-02-23T00:10:50.729Z,-2
2018-02-23T00:10:54.761Z,-1.99
2018-02-23T00:10:58.786Z,-1.99
2018-02-23T00:11:02.838Z,-2.01
2018-02-23T00:11:06.868Z,-2
2018-02-23T00:11:11.104Z,-1.99
2018-02-23T00:11:15.356Z,-2
2018-02-23T00:11:19.278Z,-2
2018-02-23T00:11:23.421Z,-2
2018-02-23T00:11:27.555Z,-1.99
2018-02-23T00:11:31.372Z,-2
2018-02-23T00:11:35.505Z,-2
2018-02-23T00:11:39.632Z,-2
2018-02-23T00:11:43.562Z,-2
2018-02-23T00:11:47.608Z,-1.99
2018-02-23T00:11:51.632Z,-2
2018-02-23T00:11:55.778Z,-2
2018-02-23T00:12:00.033Z,-2
2018-02-23T00:12:04.166Z,-2
2018-02-23T00:12:08.515Z,-2
2018-02-23T00:12:12.750Z,-2
2018-02-23T00:12:16.987Z,-2
2018-02-23T00:12:20.909Z,-2
2018-02-23T00:12:25.048Z,-2
2018-02-23T00:12:29.070Z,-2
2018-02-23T00:12:33.195Z,-2
2018-02-23T00:12:37.548Z,-2
2018-02-23T00:12:41.458Z,-2
2018-02-23T00:12:45.691Z,-2
2018-02-23T00:12:49.924Z,-2
2018-02-23T00:12:54.286Z,-2
2018-02-23T00:12:58.418Z,-2
2018-02-23T00:13:02.456Z,-2.01
2018-02-23T00:13:06.690Z,-2
2018-02-23T00:13:10.838Z,-2
2018-02-23T00:13:15.059Z,-2
2018-02-23T00:13:19.203Z,-1.99
2018-02-23T00:13:23.227Z,-1.99
2018-02-23T00:13:27.477Z,-1.99
2018-02-23T00:13:31.615Z,-2
2018-02-23T00:13:35.964Z,-1.99
2018-02-23T00:13:39.933Z,-2
2018-02-23T00:13:44.053Z,-2
2018-02-23T00:13:48.295Z,-1.99
2018-02-23T00:13:52.332Z,-1.99
2018-02-23T00:13:56.352Z,-2
2018-02-23T00:14:00.257Z,-1.99
2018-02-23T00:14:04.638Z,-2
2018-02-23T00:14:08.783Z,-1.99
2018-02-23T00:14:13.117Z,-2
2018-02-23T00:14:17.247Z,-2
2018-02-23T00:14:21.282Z,-2
2018-02-23T00:14:25.207Z,-1.99
2018-02-23T00:14:29.243Z,-1.99
2018-02-23T00:14:33.479Z,-1.99
2018-02-23T00:14:37.712Z,-2
2018-02-23T00:14:41.732Z,-2
2018-02-23T00:14:45.846Z,-1.98
2018-02-23T00:14:49.967Z,-2
2018-02-23T00:14:53.902Z,-2
2018-02-23T00:14:58.026Z,-1.99
2018-02-23T00:15:02.263Z,-1.99
2018-02-23T00:15:06.289Z,-2
2018-02-23T00:15:10.308Z,-2
2018-02-23T00:15:14.435Z,-2.01
2018-02-23T00:15:18.566Z,-2
2018-02-23T00:15:22.704Z,-2.01
2018-02-23T00:15:26.932Z,-2.01
2018-02-23T00:15:30.858Z,-2.01
2018-02-23T00:15:34.988Z,-2
2018-02-23T00:15:39.098Z,-2.01
2018-02-23T00:15:43.332Z,-2.01
2018-02-23T00:15:47.371Z,-2
2018-02-23T00:15:51.280Z,-2.01
2018-02-23T00:15:55.215Z,-2
2018-02-23T00:15:59.358Z,-2.01
2018-02-23T00:16:03.390Z,-2.01
2018-02-23T00:16:07.632Z,-2.01
2018-02-23T00:16:11.769Z,-2.01
2018-02-23T00:16:15.799Z,-2.01
2018-02-23T00:16:19.810Z,-2.01
2018-02-23T00:16:23.840Z,-2.01
2018-02-23T00:16:27.937Z,-2
2018-02-23T00:16:32.118Z,-2.02
2018-02-23T00:16:36.686Z,-2.01
2018-02-23T00:16:40.799Z,-2.01
2018-02-23T00:16:45.153Z,-2
2018-02-23T00:16:49.066Z,-2.02
2018-02-23T00:16:53.206Z,-2.01
2018-02-23T00:16:57.228Z,-2.02
2018-02-23T00:17:01.377Z,-2.03
2018-02-23T00:17:05.526Z,-2.03
2018-02-23T00:17:09.541Z,-2.03
2018-02-23T00:17:13.659Z,-2.03
2018-02-23T00:17:17.888Z,-2.03
2018-02-23T00:17:22.030Z,-2.03
2018-02-23T00:17:26.267Z,-2.03
2018-02-23T00:17:30.292Z,-2.03
2018-02-23T00:17:34.552Z,-2.04
2018-02-23T00:17:38.678Z,-2.02
2018-02-23T00:17:42.707Z,-2.03
2018-02-23T00:17:46.951Z,-2.04
2018-02-23T00:17:50.979Z,-2.04
2018-02-23T00:17:55.039Z,-2.03
2018-02-23T00:17:59.163Z,-2.03
2018-02-23T00:18:03.184Z,-2.04
2018-02-23T00:18:06.990Z,-2.04
2018-02-23T00:18:11.130Z,-2.04
2018-02-23T00:18:15.485Z,-2.04
2018-02-23T00:18:19.607Z,-2.04
2018-02-23T00:18:23.725Z,-2.04
2018-02-23T00:18:27.741Z,-2.04
2018-02-23T00:18:32.008Z,-2.05
2018-02-23T00:18:36.356Z,-2.04
2018-02-23T00:18:40.492Z,-2.04
2018-02-23T00:18:44.501Z,-2.05
2018-02-23T00:18:48.741Z,-2.04
2018-02-23T00:18:52.657Z,-2.04
2018-02-23T00:18:56.555Z,-2.06
2018-02-23T00:19:00.578Z,-2.05
2018-02-23T00:19:04.955Z,-2.05
2018-02-23T00:19:08.969Z,-2.05
2018-02-23T00:19:12.887Z,-2.04
2018-02-23T00:19:17.023Z,-2.06
2018-02-23T00:19:21.371Z,-2.05
2018-02-23T00:19:25.395Z,-2.05
2018-02-23T00:19:29.645Z,-2.05
2018-02-23T00:19:33.655Z,-2.05
2018-02-23T00:19:37.793Z,-2.05
2018-02-23T00:19:41.714Z,-2.06
2018-02-23T00:19:45.515Z,-2.06
2018-02-23T00:19:49.648Z,-2.06
2018-02-23T00:19:53.662Z,-2.06
2018-02-23T00:19:57.800Z,-2.06
2018-02-23T00:20:02.241Z,-2.07
2018-02-23T00:20:06.276Z,-2.06
2018-02-23T00:20:10.671Z,-2.07
2018-02-23T00:20:14.801Z,-2.07
2018-02-23T00:20:19.041Z,-2.06
2018-02-23T00:20:23.069Z,-2.07
2018-02-23T00:20:27.300Z,-2.06
2018-02-23T00:20:31.425Z,-2.07
2018-02-23T00:20:35.454Z,-2.07
2018-02-23T00:20:39.695Z,-2.07
2018-02-23T00:20:43.825Z,-2.07
2018-02-23T00:20:47.854Z,-2.07
2018-02-23T00:20:51.888Z,-2.07
2018-02-23T00:20:55.820Z,-2.08
2018-02-23T00:20:59.961Z,-2.07
2018-02-23T00:21:03.996Z,-2.07
2018-02-23T00:21:08.222Z,-2.07
2018-02-23T00:21:12.230Z,-2.07
2018-02-23T00:21:16.361Z,-2.07
2018-02-23T00:21:20.499Z,-2.07
2018-02-23T00:21:24.639Z,-2.07
2018-02-23T00:21:28.763Z,-2.07
2018-02-23T00:21:32.894Z,-2.08
2018-02-23T00:21:37.038Z,-2.07
2018-02-23T00:21:41.069Z,-2.07
2018-02-23T00:21:45.396Z,-2.07
2018-02-23T00:21:49.631Z,-2.07
2018-02-23T00:21:53.749Z,-2.07
2018-02-23T00:21:57.768Z,-2.07
2018-02-23T00:22:02.248Z,-2.08
2018-02-23T00:22:06.180Z,-2.08
2018-02-23T00:22:10.368Z,-2.07
2018-02-23T00:22:14.395Z,-2.07
2018-02-23T00:22:18.635Z,-2.08
2018-02-23T00:22:22.665Z,-2.06
2018-02-23T00:22:26.691Z,-2.07
2018-02-23T00:22:30.868Z,-2.07
2018-02-23T00:22:34.988Z,-2.07
2018-02-23T00:22:38.999Z,-2.08
2018-02-23T00:22:43.139Z,-2.07
2018-02-23T00:22:47.268Z,-2.08
2018-02-23T00:22:51.416Z,-2.07
2018-02-23T00:22:55.446Z,-2.08
2018-02-23T00:22:59.472Z,-2.08
2018-02-23T00:23:03.626Z,-2.07
2018-02-23T00:23:07.866Z,-2.07
2018-02-23T00:23:12.200Z,-2.08
2018-02-23T00:23:16.210Z,-2.08
2018-02-23T00:23:20.445Z,-2.08
2018-02-23T00:23:24.697Z,-2.07
2018-02-23T00:23:28.696Z,-2.07
2018-02-23T00:23:32.815Z,-2.08
2018-02-23T00:23:37.058Z,-2.08
2018-02-23T00:23:40.967Z,-2.07
2018-02-23T00:23:45.300Z,-2.07
2018-02-23T00:23:49.452Z,-2.07
2018-02-23T00:23:53.588Z,-2.08
2018-02-23T00:23:57.610Z,-2.07
2018-02-23T00:24:01.414Z,-2.07
2018-02-23T00:24:05.923Z,-2.08
2018-02-23T00:24:09.956Z,-2.08
2018-02-23T00:24:14.089Z,-2.07
2018-02-23T00:24:18.336Z,-2.08
2018-02-23T00:24:22.587Z,-2.08
2018-02-23T00:24:26.495Z,-2.08
2018-02-23T00:24:30.523Z,-2.07
2018-02-23T00:24:34.442Z,-2.07
2018-02-23T00:24:38.572Z,-2.08
2018-02-23T00:24:42.720Z,-2.07
2018-02-23T00:24:46.734Z,-2.09
2018-02-23T00:24:50.778Z,-2.08
2018-02-23T00:24:55.032Z,-2.08
2018-02-23T00:24:59.068Z,-2.07
2018-02-23T00:25:03.311Z,-2.08
2018-02-23T00:25:07.232Z,-2.08
2018-02-23T00:25:11.259Z,-2.07
2018-02-23T00:25:15.386Z,-2.07
2018-02-23T00:25:19.434Z,-2.08
2018-02-23T00:25:23.566Z,-2.09
2018-02-23T00:25:27.587Z,-2.07
2018-02-23T00:25:31.838Z,-2.09
2018-02-23T00:25:36.187Z,-2.08
2018-02-23T00:25:40.190Z,-2.07
2018-02-23T00:25:44.218Z,-2.09
2018-02-23T00:25:48.462Z,-2.08
2018-02-23T00:25:52.686Z,-2.08
2018-02-23T00:25:56.732Z,-2.08
2018-02-23T00:26:00.761Z,-2.07
2018-02-23T00:26:04.794Z,-2.08
2018-02-23T00:26:09.045Z,-2.08
2018-02-23T00:26:13.655Z,-2.08
2018-02-23T00:26:17.837Z,-2.08
2018-02-23T00:26:21.970Z,-2.07
2018-02-23T00:26:25.994Z,-2.08
2018-02-23T00:26:30.232Z,-2.09
2018-02-23T00:26:34.357Z,-2.08
2018-02-23T00:26:38.590Z,-2.07
2018-02-23T00:26:42.718Z,-2.08
2018-02-23T00:26:46.837Z,-2.07
2018-02-23T00:26:50.646Z,-2.07
2018-02-23T00:26:54.993Z,-2.07
2018-02-23T00:26:59.110Z,-2.08
2018-02-23T00:27:03.334Z,-2.06
2018-02-23T00:27:07.455Z,-2.07
2018-02-23T00:27:11.718Z,-2.07
2018-02-23T00:27:15.863Z,-2.07
2018-02-23T00:27:19.992Z,-2.06
2018-02-23T00:27:24.248Z,-2.06
2018-02-23T00:27:28.492Z,-2.06
2018-02-23T00:27:32.721Z,-2.06
2018-02-23T00:27:36.939Z,-2.07
2018-02-23T00:27:40.956Z,-2.06
2018-02-23T00:27:44.864Z,-2.06
2018-02-23T00:27:49.091Z,-2.06
2018-02-23T00:27:53.209Z,-2.06
2018-02-23T00:27:57.250Z,-2.07
2018-02-23T00:28:01.282Z,-2.06
2018-02-23T00:28:05.443Z,-2.06
2018-02-23T00:28:09.386Z,-2.06
2018-02-23T00:28:13.495Z,-2.06
2018-02-23T00:28:17.585Z,-2.06
2018-02-23T00:28:21.617Z,-2.06
2018-02-23T00:28:25.955Z,-2.06
2018-02-23T00:28:30.085Z,-2.06
2018-02-23T00:28:33.981Z,-2.07
2018-02-23T00:28:38.222Z,-2.06
2018-02-23T00:28:42.132Z,-2.06
2018-02-23T00:28:46.038Z,-2.06
2018-02-23T00:28:50.178Z,-2.07
2018-02-23T00:28:54.564Z,-2.06
2018-02-23T00:28:58.573Z,-2.07
2018-02-23T00:29:17.733Z,-2.06
2018-02-23T00:29:21.544Z,-2.05
2018-02-23T00:29:25.681Z,-2.06
2018-02-23T00:29:29.923Z,-2.05
2018-02-23T00:29:34.268Z,-2.05
2018-02-23T00:29:38.407Z,-2.05
2018-02-23T00:29:42.642Z,-2.05
2018-02-23T00:29:46.775Z,-2.05
2018-02-23T00:29:51.013Z,-2.06
2018-02-23T00:29:55.040Z,-2.04
2018-02-23T00:29:59.066Z,-2.05
2018-02-23T00:30:03.228Z,-2.05
2018-02-23T00:30:07.161Z,-2.05
2018-02-23T00:30:11.394Z,-2.04
2018-02-23T00:30:15.548Z,-2.04
2018-02-23T00:30:19.670Z,-2.05
2018-02-23T00:30:23.689Z,-2.05
2018-02-23T00:30:27.912Z,-2.05
2018-02-23T00:30:32.053Z,-2.05
2018-02-23T00:30:36.191Z,-2.05
2018-02-23T00:30:40.424Z,-2.04
2018-02-23T00:30:44.769Z,-2.04
2018-02-23T00:30:48.895Z,-2.04
2018-02-23T00:30:53.027Z,-2.04
2018-02-23T00:30:57.253Z,-2.05
2018-02-23T00:31:01.156Z,-2.04
2018-02-23T00:31:04.974Z,-2.04
2018-02-23T00:31:09.007Z,-2.04
2018-02-23T00:31:13.246Z,-2.04
2018-02-23T00:31:17.483Z,-2.04
2018-02-23T00:31:21.645Z,-2.04
2018-02-23T00:31:25.683Z,-2.04
2018-02-23T00:31:29.516Z,-2.04
2018-02-23T00:31:33.402Z,-2.04
2018-02-23T00:31:37.634Z,-2.04
2018-02-23T00:31:41.870Z,-2.04
2018-02-23T00:31:46.009Z,-2.03
2018-02-23T00:31:50.355Z,-2.03
2018-02-23T00:31:54.492Z,-2.04
2018-02-23T00:31:58.844Z,-2.05
2018-02-23T00:32:02.977Z,-2.05
2018-02-23T00:32:07.009Z,-2.04
2018-02-23T00:32:11.246Z,-2.04
2018-02-23T00:32:15.478Z,-2.04
2018-02-23T00:32:19.613Z,-2.05
2018-02-23T00:32:23.749Z,-2.04
2018-02-23T00:32:27.988Z,-2.04
2018-02-23T00:32:32.012Z,-2.05
2018-02-23T00:32:36.251Z,-2.04
2018-02-23T00:32:40.506Z,-2.05
2018-02-23T00:32:44.522Z,-2.04
2018-02-23T00:32:48.443Z,-2.05
2018-02-23T00:32:52.736Z,-2.04
2018-02-23T00:32:56.771Z,-2.05
2018-02-23T00:33:00.914Z,-2.04
2018-02-23T00:33:04.926Z,-2.05
2018-02-23T00:33:09.207Z,-2.05
2018-02-23T00:33:13.334Z,-2.05
2018-02-23T00:33:17.255Z,-2.04
2018-02-23T00:33:21.292Z,-2.05
2018-02-23T00:33:25.534Z,-2.04
2018-02-23T00:33:29.768Z,-2.05
2018-02-23T00:33:33.900Z,-2.05
2018-02-23T00:33:37.805Z,-2.05
2018-02-23T00:33:42.045Z,-2.05
2018-02-23T00:33:46.072Z,-2.05
2018-02-23T00:33:49.992Z,-2.05
2018-02-23T00:33:53.800Z,-2.05
2018-02-23T00:33:57.828Z,-2.05
2018-02-23T00:34:01.848Z,-2.06
2018-02-23T00:34:05.978Z,-2.05
2018-02-23T00:34:10.101Z,-2.05
2018-02-23T00:34:14.347Z,-2.04
2018-02-23T00:34:18.591Z,-2.06
2018-02-23T00:34:22.835Z,-2.05
2018-02-23T00:34:26.740Z,-2.05
2018-02-23T00:34:30.871Z,-2.06
2018-02-23T00:34:35.000Z,-2.05
2018-02-23T00:34:39.035Z,-2.06
2018-02-23T00:34:43.157Z,-2.06
2018-02-23T00:34:47.166Z,-2.06
2018-02-23T00:34:51.077Z,-2.06
2018-02-23T00:34:55.088Z,-2.06
2018-02-23T00:34:58.899Z,-2.05
2018-02-23T00:35:03.149Z,-2.05
2018-02-23T00:35:07.174Z,-2.05
2018-02-23T00:35:11.334Z,-2.05
2018-02-23T00:35:15.569Z,-2.05
2018-02-23T00:35:19.494Z,-2.05
2018-02-23T00:35:23.735Z,-2.05
2018-02-23T00:35:28.060Z,-2.05
2018-02-23T00:35:32.063Z,-2.05
2018-02-23T00:35:36.088Z,-2.05
2018-02-23T00:35:40.223Z,-2.05
2018-02-23T00:35:44.235Z,-2.05
2018-02-23T00:35:48.267Z,-2.05
2018-02-23T00:35:52.398Z,-2.05
2018-02-23T00:35:56.411Z,-2.05
2018-02-23T00:36:00.756Z,-2.04
2018-02-23T00:36:04.886Z,-2.05
2018-02-23T00:36:08.780Z,-2.05
2018-02-23T00:36:13.013Z,-2.04
2018-02-23T00:36:17.259Z,-2.05
2018-02-23T00:36:21.081Z,-2.04
2018-02-23T00:36:24.999Z,-2.05
2018-02-23T00:36:29.347Z,-2.04
2018-02-23T00:36:33.484Z,-2.04
2018-02-23T00:36:37.504Z,-2.04
2018-02-23T00:36:41.648Z,-2.04
2018-02-23T00:36:46.303Z,-2.03
2018-02-23T00:36:50.602Z,-2.04
2018-02-23T00:36:54.823Z,-2.04
2018-02-23T00:36:58.851Z,-2.05
2018-02-23T00:37:02.992Z,-2.04
2018-02-23T00:37:07.126Z,-2.04
2018-02-23T00:37:11.153Z,-2.04
2018-02-23T00:37:15.175Z,-2.04
2018-02-23T00:37:19.289Z,-2.04
2018-02-23T00:37:23.419Z,-2.04
2018-02-23T00:37:27.553Z,-2.04
2018-02-23T00:37:31.482Z,-2.04
2018-02-23T00:37:35.599Z,-2.04
2018-02-23T00:37:39.735Z,-2.04
2018-02-23T00:37:43.779Z,-2.05
2018-02-23T00:37:47.807Z,-2.05
2018-02-23T00:37:51.608Z,-2.04
2018-02-23T00:37:55.762Z,-2.05
2018-02-23T00:37:59.800Z,-2.05
2018-02-23T00:38:03.829Z,-2.05
2018-02-23T00:38:07.869Z,-2.06
2018-02-23T00:38:12.104Z,-2.05
2018-02-23T00:38:16.229Z,-2.06
2018-02-23T00:38:20.343Z,-2.06
2018-02-23T00:38:24.464Z,-2.06
2018-02-23T00:38:28.478Z,-2.06
2018-02-23T00:38:32.303Z,-2.06
2018-02-23T00:38:36.656Z,-2.07
2018-02-23T00:38:40.685Z,-2.06
2018-02-23T00:38:44.826Z,-2.07
2018-02-23T00:38:48.842Z,-2.07
2018-02-23T00:38:52.989Z,-2.07
2018-02-23T00:38:57.131Z,-2.07
2018-02-23T00:39:01.259Z,-2.07
2018-02-23T00:39:05.279Z,-2.07
2018-02-23T00:39:09.303Z,-2.07
2018-02-23T00:39:13.322Z,-2.07
2018-02-23T00:39:17.557Z,-2.08
2018-02-23T00:39:21.641Z,-2.07
2018-02-23T00:39:25.884Z,-2.07
2018-02-23T00:39:30.016Z,-2.08
2018-02-23T00:39:33.818Z,-2.08
2018-02-23T00:39:37.758Z,-2.08
2018-02-23T00:39:41.795Z,-2.08
2018-02-23T00:39:45.824Z,-2.08
2018-02-23T00:39:49.739Z,-2.08
2018-02-23T00:39:53.643Z,-2.09
2018-02-23T00:39:57.656Z,-2.08
2018-02-23T00:40:01.771Z,-2.09
2018-02-23T00:40:06.112Z,-2.08
2018-02-23T00:40:10.342Z,-2.08
2018-02-23T00:40:14.476Z,-2.09
2018-02-23T00:40:18.613Z,-2.1
2018-02-23T00:40:22.747Z,-2.09
2018-02-23T00:40:26.877Z,-2.09
2018-02-23T00:40:30.675Z,-2.09
2018-02-23T00:40:34.814Z,-2.09
2018-02-23T00:40:38.968Z,-2.09
2018-02-23T00:40:42.897Z,-2.08
2018-02-23T00:40:47.129Z,-2.09
2018-02-23T00:40:50.926Z,-2.08
2018-02-23T00:40:54.949Z,-2.09
2018-02-23T00:40:58.748Z,-2.09
2018-02-23T00:41:03.138Z,-2.1
2018-02-23T00:41:07.179Z,-2.09
2018-02-23T00:41:11.310Z,-2.09
2018-02-23T00:41:15.342Z,-2.09
2018-02-23T00:41:19.670Z,-2.09
2018-02-23T00:41:23.815Z,-2.09
2018-02-23T00:41:27.829Z,-2.09
2018-02-23T00:41:31.751Z,-2.1
2018-02-23T00:41:35.656Z,-2.09
2018-02-23T00:41:39.672Z,-2.09
2018-02-23T00:41:43.710Z,-2.1
2018-02-23T00:41:47.838Z,-2.1
2018-02-23T00:41:51.653Z,-2.1
2018-02-23T00:41:55.798Z,-2.09
2018-02-23T00:41:59.928Z,-2.09
2018-02-23T00:42:04.323Z,-2.1
2018-02-23T00:42:08.553Z,-2.1
2018-02-23T00:42:12.565Z,-2.1
2018-02-23T00:42:16.820Z,-2.1
2018-02-23T00:42:21.075Z,-2.1
2018-02-23T00:42:24.984Z,-2.1
2018-02-23T00:42:29.107Z,-2.1
2018-02-23T00:42:33.126Z,-2.1
2018-02-23T00:42:37.151Z,-2.1
2018-02-23T00:42:41.410Z,-2.11
2018-02-23T00:42:45.328Z,-2.11
2018-02-23T00:42:49.562Z,-2.11
2018-02-23T00:42:53.804Z,-2.1
2018-02-23T00:42:57.935Z,-2.11
2018-02-23T00:43:02.302Z,-2.11
2018-02-23T00:43:06.410Z,-2.12
2018-02-23T00:43:10.441Z,-2.11
2018-02-23T00:43:14.480Z,-2.12
2018-02-23T00:43:18.682Z,-2.12
2018-02-23T00:43:22.924Z,-2.12
2018-02-23T00:43:27.150Z,-2.11
2018-02-23T00:43:31.393Z,-2.12
2018-02-23T00:43:35.191Z,-2.12
2018-02-23T00:43:38.887Z,-2.12
2018-02-23T00:43:42.699Z,-2.13
2018-02-23T00:43:46.732Z,-2.13
2018-02-23T00:43:50.655Z,-2.13
2018-02-23T00:43:54.572Z,-2.12
2018-02-23T00:43:58.603Z,-2.12
2018-02-23T00:44:02.634Z,-2.12
2018-02-23T00:44:06.544Z,-2.13
2018-02-23T00:44:10.739Z,-2.13
2018-02-23T00:44:14.969Z,-2.14
2018-02-23T00:44:19.108Z,-2.13
2018-02-23T00:44:23.022Z,-2.12
2018-02-23T00:44:27.038Z,-2.14
2018-02-23T00:44:31.175Z,-2.14
2018-02-23T00:44:35.210Z,-2.14
2018-02-23T00:44:39.342Z,-2.14
2018-02-23T00:44:43.475Z,-2.15
2018-02-23T00:44:47.504Z,-2.14
2018-02-23T00:44:51.426Z,-2.15
2018-02-23T00:44:55.457Z,-2.15
2018-02-23T00:44:59.490Z,-2.15
2018-02-23T00:45:03.764Z,-2.15
2018-02-23T00:45:08.064Z,-2.16
2018-02-23T00:45:12.226Z,-2.16
2018-02-23T00:45:16.352Z,-2.16
2018-02-23T00:45:20.501Z,-2.16
2018-02-23T00:45:24.742Z,-2.17
2018-02-23T00:45:28.871Z,-2.17
2018-02-23T00:45:33.007Z,-2.16
2018-02-23T00:45:37.368Z,-2.17
2018-02-23T00:45:41.281Z,-2.18
2018-02-23T00:45:45.304Z,-2.18
2018-02-23T00:45:49.223Z,-2.18
2018-02-23T00:45:53.350Z,-2.18
2018-02-23T00:45:57.276Z,-2.18
2018-02-23T00:46:01.878Z,-2.18
2018-02-23T00:46:06.013Z,-2.19
2018-02-23T00:46:10.136Z,-2.18
2018-02-23T00:46:14.200Z,-2.19
2018-02-23T00:46:18.448Z,-2.19
2018-02-23T00:46:22.806Z,-2.19
2018-02-23T00:46:26.934Z,-2.2
2018-02-23T00:46:30.971Z,-2.2
2018-02-23T00:46:35.116Z,-2.19
2018-02-23T00:46:39.251Z,-2.2
2018-02-23T00:46:43.570Z,-2.21
2018-02-23T00:46:47.592Z,-2.2
2018-02-23T00:46:51.607Z,-2.2
2018-02-23T00:46:55.744Z,-2.21
2018-02-23T00:46:59.871Z,-2.2
2018-02-23T00:47:03.790Z,-2.21
2018-02-23T00:47:08.041Z,-2.2
2018-02-23T00:47:12.332Z,-2.21
2018-02-23T00:47:16.352Z,-2.22
2018-02-23T00:47:20.490Z,-2.21
2018-02-23T00:47:24.515Z,-2.21
2018-02-23T00:47:28.779Z,-2.22
2018-02-23T00:47:32.903Z,-2.23
2018-02-23T00:47:37.044Z,-2.22
2018-02-23T00:47:41.193Z,-2.22
2018-02-23T00:47:45.418Z,-2.22
2018-02-23T00:47:49.433Z,-2.22
2018-02-23T00:47:53.652Z,-2.23
2018-02-23T00:47:57.563Z,-2.23
2018-02-23T00:48:01.592Z,-2.23
2018-02-23T00:48:05.932Z,-2.23
2018-02-23T00:48:09.949Z,-2.22
2018-02-23T00:48:13.980Z,-2.23
2018-02-23T00:48:18.112Z,-2.24
2018-02-23T00:48:22.238Z,-2.23
2018-02-23T00:48:26.151Z,-2.23
2018-02-23T00:48:30.067Z,-2.23
2018-02-23T00:48:34.099Z,-2.24
2018-02-23T00:48:37.910Z,-2.23
2018-02-23T00:48:41.931Z,-2.23
2018-02-23T00:48:46.177Z,-2.23
2018-02-23T00:48:50.325Z,-2.24
2018-02-23T00:48:54.579Z,-2.23
2018-02-23T00:48:58.951Z,-2.23
2018-02-23T00:49:02.876Z,-2.24
2018-02-23T00:49:07.000Z,-2.24
2018-02-23T00:49:11.357Z,-2.23
2018-02-23T00:49:15.704Z,-2.25
2018-02-23T00:49:20.038Z,-2.24
2018-02-23T00:49:24.281Z,-2.24
2018-02-23T00:49:28.409Z,-2.25
2018-02-23T00:49:32.544Z,-2.24
2018-02-23T00:49:36.785Z,-2.24
2018-02-23T00:49:40.801Z,-2.23
2018-02-23T00:49:44.705Z,-2.24
2018-02-23T00:49:48.835Z,-2.24
2018-02-23T00:49:52.974Z,-2.24
2018-02-23T00:49:57.219Z,-2.24
2018-02-23T00:50:01.143Z,-2.25
2018-02-23T00:50:05.415Z,-2.24
2018-02-23T00:50:09.334Z,-2.25
2018-02-23T00:50:13.366Z,-2.25
2018-02-23T00:50:17.376Z,-2.24
2018-02-23T00:50:21.418Z,-2.23
2018-02-23T00:50:25.546Z,-2.25
2018-02-23T00:50:29.669Z,-2.25
2018-02-23T00:50:33.699Z,-2.24
2018-02-23T00:50:37.731Z,-2.24
2018-02-23T00:50:41.644Z,-2.25
2018-02-23T00:50:45.776Z,-2.25
2018-02-23T00:50:49.695Z,-2.24
2018-02-23T00:50:53.617Z,-2.23
2018-02-23T00:50:57.636Z,-2.24
2018-02-23T00:51:02.230Z,-2.23
2018-02-23T00:51:06.032Z,-2.22
2018-02-23T00:51:10.272Z,-2.24
2018-02-23T00:51:14.408Z,-2.24
2018-02-23T00:51:18.454Z,-2.23
2018-02-23T00:51:22.483Z,-2.22
2018-02-23T00:51:26.739Z,-2.23
2018-02-23T00:51:30.991Z,-2.23
2018-02-23T00:51:35.225Z,-2.22
2018-02-23T00:51:39.240Z,-2.22
2018-02-23T00:51:43.366Z,-2.23
2018-02-23T00:51:47.730Z,-2.22
2018-02-23T00:51:51.853Z,-2.22
2018-02-23T00:51:56.191Z,-2.22
2018-02-23T00:52:00.094Z,-2.22
2018-02-23T00:52:03.791Z,-2.22
2018-02-23T00:52:07.815Z,-2.22
2018-02-23T00:52:11.938Z,-2.22
2018-02-23T00:52:16.269Z,-2.22
2018-02-23T00:52:20.526Z,-2.22
2018-02-23T00:52:24.567Z,-2.22
2018-02-23T00:52:28.677Z,-2.22
2018-02-23T00:52:32.585Z,-2.22
2018-02-23T00:52:36.716Z,-2.22
2018-02-23T00:52:40.738Z,-2.22
2018-02-23T00:52:44.753Z,-2.22
2018-02-23T00:52:48.903Z,-2.22
2018-02-23T00:52:53.041Z,-2.22
2018-02-23T00:52:57.063Z,-2.22
2018-02-23T00:53:01.083Z,-2.23
2018-02-23T00:53:05.099Z,-2.23
2018-02-23T00:53:09.465Z,-2.22
2018-02-23T00:53:13.497Z,-2.23
2018-02-23T00:53:17.528Z,-2.22
2018-02-23T00:53:21.651Z,-2.22
2018-02-23T00:53:25.721Z,-2.22
2018-02-23T00:53:29.528Z,-2.22
2018-02-23T00:53:33.885Z,-2.22
2018-02-23T00:53:37.918Z,-2.22
2018-02-23T00:53:42.035Z,-2.23
2018-02-23T00:53:45.840Z,-2.23
2018-02-23T00:53:50.075Z,-2.23